Salmon Arm, British Columbia

3:45 PM PDT on August 21, 2014 (GMT -0700)
Blind Bay, BC | Change Station
CLOSE
Current Station
Personal Weather Station
Location: Columbia-Shuswap C, BC
Elevation: 1194 ft
Nearby Weather Stations

Elev 1194 ft 50.88 °N, 119.37 °W | Updated 28 seconds ago

Clear
Clear
72.7 °F
Feels Like 75 °F
N
0.7
Wind Variable Wind from East
Gusts 1.6 mph

Today is forecast to be nearly the same temperature as yesterday.

Today
High -- | Low -- °F
--% Chance of Precip.
Yesterday
High -- | Low -- °F
Precip. -- in
5:54 AM 8:05 PM
Waning Crescent, 12% visible
Pressure 29.91 in
Visibility 9.0 miles
Clouds Clear
Heat Index 75 °F
Dew Point 62 °F
Humidity 68%
Rainfall 0.00 in
Snow Depth Not available.
UV 5 out of 12
Pollen Not available.
Air Quality Not available.
Flu Activity Not available.
SPECI CYLW 212244Z AUTO 20010KT 9SM VCTS CLR 23/10 A2990 RMK LTNG DIST SE SLP126 DENSITY ALT 2700FT

More Conditions Fewer Conditions

Pressure 29.91 in
Visibility 9.0 miles
Clouds Clear
Heat Index 75 °F
Dew Point 62 °F
Humidity 68%
Rainfall 0.00 in
Snow Depth Not available.
UV 5 out of 12
Pollen Not available.
Air Quality Not available.
Flu Activity Not available.
SPECI CYLW 212244Z AUTO 20010KT 9SM VCTS CLR 23/10 A2990 RMK LTNG DIST SE SLP126 DENSITY ALT 2700FT

More Conditions Fewer Conditions

10-Day Weather Forecast

Almanac

Astronomy

Aug. 21, 2014 Rise Set
Actual Time 5:54 AM PDT 8:05 PM PDT
Civil Twilight 5:18 AM PDT 8:40 PM PDT
Nautical Twilight 4:33 AM PDT 9:24 PM PDT
Astronomical Twilight 3:42 AM PDT 10:15 PM PDT
Moon 2:18 AM PDT 5:46 PM PDT
Length of Visible Light 15h 21m
Length of Day
14h 10m
Tomorrow will be 3m 34s shorter.
Waning Crescent, 12% of the Moon is Illuminated
Today
Waning Crescent
Aug 25
New
Sep 2
First Quarter
Sep 8
Full
Sep 15
Last Quarter

Today's Extremes

Country Highs Country Lows

Community

WunderPhotos

Upload Photos

1,746,044 photos uploaded!

WunderBlogs® & News

Nearby

Snow Depth

Not available.

Earthquake Activity

City Distance Mag. Time & Date
No recent earthquake activity has been reported nearby.
Minimum magnitude displayed is 2.5.

Coastal Water Temperatures

Place Temperature
No Stations Reporting

Nearby Weather Stations